createdAt,value
2023-03-02T00:01:50.346Z,102128.19
2023-03-02T00:04:21.283Z,102138.88
2023-03-02T00:06:49.610Z,102130.88
2023-03-02T00:09:16.778Z,102136.97
2023-03-02T00:11:46.083Z,102133.63
2023-03-02T00:14:13.105Z,102136.34
2023-03-02T00:16:40.575Z,102127.94
2023-03-02T00:19:07.616Z,102129.41
2023-03-02T00:21:35.045Z,102123.34
2023-03-02T00:24:01.997Z,102130.16
2023-03-02T00:26:28.863Z,102124.09
2023-03-02T00:28:56.167Z,102120.63
2023-03-02T00:31:23.155Z,102124.19
2023-03-02T00:33:51.476Z,102121.56
2023-03-02T00:36:18.850Z,102115.59
2023-03-02T00:38:45.733Z,102126.25
2023-03-02T00:41:13.944Z,102120.28
2023-03-02T00:43:41.303Z,102121.22
2023-03-02T00:46:11.442Z,102122.38
2023-03-02T00:48:38.549Z,102112.63
2023-03-02T00:51:06.121Z,102120.78
2023-03-02T00:53:33.813Z,102117.59
2023-03-02T00:56:05.277Z,102113.97
2023-03-02T00:58:32.461Z,102113.97
2023-03-02T01:00:59.887Z,102117.53
2023-03-02T01:03:26.801Z,102111.66
2023-03-02T01:05:55.717Z,102110.59
2023-03-02T01:08:23.475Z,102113.00
2023-03-02T01:10:50.511Z,102108.53
2023-03-02T01:13:18.695Z,102102.53
2023-03-02T01:15:46.078Z,102105.06
2023-03-02T01:18:13.392Z,102103.28
2023-03-02T01:20:40.360Z,102098.28
2023-03-02T01:23:07.338Z,102100.97
2023-03-02T01:25:34.246Z,102097.81
2023-03-02T01:28:01.202Z,102089.03
2023-03-02T01:30:28.182Z,102098.03
2023-03-02T01:32:55.205Z,102091.09
2023-03-02T01:35:22.306Z,102095.66
2023-03-02T01:37:49.289Z,102096.63
2023-03-02T01:40:17.545Z,102088.03
2023-03-02T01:42:47.522Z,102086.25
2023-03-02T01:45:17.607Z,102085.22
2023-03-02T01:47:44.811Z,102077.47
2023-03-02T01:50:12.318Z,102077.47
2023-03-02T01:52:39.842Z,102087.66
2023-03-02T01:55:08.437Z,102081.47
2023-03-02T01:57:44.050Z,102075.41
2023-03-02T02:00:13.849Z,102075.41
2023-03-02T02:02:42.393Z,102071.88
2023-03-02T02:05:12.335Z,102066.72
2023-03-02T02:07:39.871Z,102074.88
2023-03-02T02:10:07.460Z,102068.97
2023-03-02T02:12:34.576Z,102065.09
2023-03-02T02:15:02.605Z,102066.94
2023-03-02T02:17:30.283Z,102065.56
2023-03-02T02:19:57.853Z,102066.50
2023-03-02T02:22:31.999Z,102064.91
2023-03-02T02:25:03.038Z,102062.59
2023-03-02T02:27:34.086Z,102058.50
2023-03-02T02:30:03.615Z,102063.91
2023-03-02T02:32:32.802Z,102066.41
2023-03-02T02:35:02.633Z,102058.78
2023-03-02T02:37:33.302Z,102061.41
2023-03-02T02:40:02.412Z,102061.56
2023-03-02T02:42:31.024Z,102068.56
2023-03-02T02:44:58.871Z,102064.28
2023-03-02T02:47:25.982Z,102065.88
2023-03-02T02:49:54.251Z,102069.50
2023-03-02T02:52:22.433Z,102069.41
2023-03-02T02:54:50.408Z,102065.31
2023-03-02T02:57:18.915Z,102066.25
2023-03-02T02:59:48.566Z,102065.22
2023-03-02T03:02:19.183Z,102067.94
2023-03-02T03:04:45.930Z,102064.56
2023-03-02T03:07:15.661Z,102050.75
2023-03-02T03:09:42.464Z,102057.13
2023-03-02T03:12:15.699Z,102062.44
2023-03-02T03:14:42.708Z,102053.75
2023-03-02T03:17:14.102Z,102055.06
2023-03-02T03:19:42.785Z,102059.91
2023-03-02T03:22:12.100Z,102057.50
2023-03-02T03:24:39.794Z,102054.22
2023-03-02T03:27:07.268Z,102057.03
2023-03-02T03:29:34.882Z,102054.59
2023-03-02T03:32:02.545Z,102057.97
2023-03-02T03:34:30.354Z,102054.34
2023-03-02T03:37:02.700Z,102056.00
2023-03-02T03:39:30.380Z,102053.56
2023-03-02T03:41:57.590Z,102057.31
2023-03-02T03:44:24.394Z,102058.25
2023-03-02T03:46:51.327Z,102052.94
2023-03-02T03:49:18.203Z,102055.44
2023-03-02T03:51:45.143Z,102056.19
2023-03-02T03:54:11.893Z,102052.81
2023-03-02T03:56:40.742Z,102056.47
2023-03-02T03:59:08.303Z,102050.69
2023-03-02T04:01:38.778Z,102053.47
2023-03-02T04:04:06.789Z,102069.25
2023-03-02T04:06:34.009Z,102062.38
2023-03-02T04:09:05.045Z,102066.97
2023-03-02T04:11:33.083Z,102068.81
2023-03-02T04:13:59.853Z,102082.81
2023-03-02T04:16:26.631Z,102074.16
2023-03-02T04:18:53.345Z,102081.22
2023-03-02T04:21:20.318Z,102079.81
2023-03-02T04:23:47.272Z,102076.34
2023-03-02T04:26:14.039Z,102075.97
2023-03-02T04:28:40.809Z,102081.75
2023-03-02T04:31:07.712Z,102080.06
2023-03-02T04:33:34.568Z,102075.22
2023-03-02T04:36:01.490Z,102073.53
2023-03-02T04:38:29.824Z,102075.31
2023-03-02T04:40:57.613Z,102076.97
2023-03-02T04:43:25.907Z,102075.41
2023-03-02T04:45:53.255Z,102078.94
2023-03-02T04:48:20.409Z,102078.09
2023-03-02T04:50:47.358Z,102072.03
2023-03-02T04:53:14.399Z,102078.28
2023-03-02T04:55:41.770Z,102071.38
2023-03-02T04:58:08.885Z,102077.53
2023-03-02T05:00:35.877Z,102077.59
2023-03-02T05:03:04.176Z,102080.78
2023-03-02T05:05:30.989Z,102072.22
2023-03-02T05:07:58.788Z,102067.09
2023-03-02T05:10:26.509Z,102075.56
2023-03-02T05:12:55.153Z,102079.28
2023-03-02T05:15:23.211Z,102077.59
2023-03-02T05:17:49.964Z,102064.75
2023-03-02T05:20:17.238Z,102066.69
2023-03-02T05:22:44.085Z,102065.84
2023-03-02T05:25:11.391Z,102068.38
2023-03-02T05:27:38.577Z,102069.19
2023-03-02T05:30:06.104Z,102064.94
2023-03-02T05:32:33.025Z,102063.91
2023-03-02T05:34:59.949Z,102062.22
2023-03-02T05:37:26.744Z,102067.34
2023-03-02T05:39:53.549Z,102062.97
2023-03-02T05:42:20.477Z,102061.38
2023-03-02T05:44:47.268Z,102062.31
2023-03-02T05:47:14.135Z,102055.41
2023-03-02T05:49:41.238Z,102065.78
2023-03-02T05:52:07.983Z,102053.53
2023-03-02T05:54:36.960Z,102056.25
2023-03-02T05:57:03.777Z,102061.63
2023-03-02T05:59:30.521Z,102067.69
2023-03-02T06:01:59.388Z,102066.84
2023-03-02T06:04:26.540Z,102070.16
2023-03-02T06:06:53.386Z,102070.16
2023-03-02T06:09:20.209Z,102069.38
2023-03-02T06:11:47.090Z,102072.53
2023-03-02T06:14:13.805Z,102073.03
2023-03-02T06:16:40.828Z,102077.41
2023-03-02T06:19:07.593Z,102082.50
2023-03-02T06:21:34.439Z,102091.09
2023-03-02T06:24:02.319Z,102078.81
2023-03-02T06:26:29.067Z,102085.63
2023-03-02T06:28:55.811Z,102085.63
2023-03-02T06:31:22.736Z,102085.53
2023-03-02T06:33:50.222Z,102084.63
2023-03-02T06:36:17.806Z,102087.13
2023-03-02T06:38:44.933Z,102074.91
2023-03-02T06:41:11.671Z,102084.25
2023-03-02T06:43:38.429Z,102083.16
2023-03-02T06:46:05.539Z,102085.75
2023-03-02T06:48:32.327Z,102084.16
2023-03-02T06:50:59.062Z,102084.16
2023-03-02T06:53:25.859Z,102079.78
2023-03-02T06:55:52.706Z,102083.81
2023-03-02T06:58:20.082Z,102075.91
2023-03-02T07:00:46.978Z,102081.19
2023-03-02T07:03:13.845Z,102078.59
2023-03-02T07:05:40.673Z,102075.78
2023-03-02T07:08:07.564Z,102088.66
2023-03-02T07:10:34.634Z,102082.69
2023-03-02T07:13:01.465Z,102088.94
2023-03-02T07:15:28.277Z,102086.22
2023-03-02T07:17:55.022Z,102088.75
2023-03-02T07:20:21.922Z,102084.28
2023-03-02T07:22:48.871Z,102081.50
2023-03-02T07:25:15.746Z,102089.06
2023-03-02T07:27:42.537Z,102091.59
2023-03-02T07:30:10.040Z,102090.38
2023-03-02T07:32:36.965Z,102092.78
2023-03-02T07:35:04.067Z,102099.38
2023-03-02T07:37:30.901Z,102088.16
2023-03-02T07:40:00.295Z,102087.34
2023-03-02T07:42:27.679Z,102089.84
2023-03-02T07:44:54.517Z,102077.72
2023-03-02T07:47:21.637Z,102085.13
2023-03-02T07:49:48.712Z,102083.06
2023-03-02T07:52:15.528Z,102089.78
2023-03-02T07:54:42.754Z,102079.22
2023-03-02T07:57:09.610Z,102087.63
2023-03-02T07:59:36.528Z,102087.53
2023-03-02T08:02:06.369Z,102089.13
2023-03-02T08:04:34.955Z,102095.84
2023-03-02T08:07:01.869Z,102087.16
2023-03-02T08:09:28.648Z,102092.66
2023-03-02T08:11:55.494Z,102099.22
2023-03-02T08:14:23.220Z,102099.94
2023-03-02T08:16:52.528Z,102088.09
2023-03-02T08:19:20.093Z,102088.44
2023-03-02T08:21:46.946Z,102097.19
2023-03-02T08:24:16.410Z,102095.88
2023-03-02T08:26:43.516Z,102100.81
2023-03-02T08:29:10.508Z,102099.78
2023-03-02T08:31:37.645Z,102106.97
2023-03-02T08:34:10.681Z,102101.66
2023-03-02T08:36:38.948Z,102110.97
2023-03-02T08:39:05.921Z,102114.66
2023-03-02T08:41:34.982Z,102118.94
2023-03-02T08:44:05.856Z,102113.16
2023-03-02T08:46:32.832Z,102124.72
2023-03-02T08:48:59.671Z,102132.03
2023-03-02T08:51:26.757Z,102125.19
2023-03-02T08:53:55.617Z,102125.19
2023-03-02T08:56:25.563Z,102124.91
2023-03-02T08:58:53.324Z,102128.81
2023-03-02T09:01:22.323Z,102118.78
2023-03-02T09:03:49.378Z,102126.16
2023-03-02T09:06:16.548Z,102126.91
2023-03-02T09:08:43.718Z,102135.41
2023-03-02T09:11:10.866Z,102134.47
2023-03-02T09:13:37.962Z,102129.97
2023-03-02T09:16:05.824Z,102129.34
2023-03-02T09:18:32.719Z,102133.66
2023-03-02T09:20:59.593Z,102139.66
2023-03-02T09:23:27.056Z,102135.25
2023-03-02T09:25:54.309Z,102143.66
2023-03-02T09:28:22.299Z,102133.41
2023-03-02T09:30:52.144Z,102135.44
2023-03-02T09:33:19.450Z,102138.59
2023-03-02T09:35:47.773Z,102139.88
2023-03-02T09:38:17.250Z,102144.81
2023-03-02T09:40:52.500Z,102138.84
2023-03-02T09:43:22.441Z,102136.09
2023-03-02T09:45:49.648Z,102151.53
2023-03-02T09:48:17.831Z,102154.56
2023-03-02T09:50:47.772Z,102146.41
2023-03-02T09:53:17.730Z,102151.22
2023-03-02T09:55:46.399Z,102149.03
2023-03-02T09:58:16.419Z,102135.41
2023-03-02T10:00:44.385Z,102139.06
2023-03-02T10:03:18.014Z,102144.44
2023-03-02T10:05:46.985Z,102148.63
2023-03-02T10:08:17.189Z,102158.28
2023-03-02T10:10:47.178Z,102152.69
2023-03-02T10:13:14.431Z,102148.72
2023-03-02T10:15:47.319Z,102151.75
2023-03-02T10:18:19.114Z,102144.53
2023-03-02T10:20:49.310Z,102148.09
2023-03-02T10:23:23.914Z,102149.47
2023-03-02T10:25:53.412Z,102140.78
2023-03-02T10:28:22.355Z,102155.03
2023-03-02T10:30:55.023Z,102141.13
2023-03-02T10:33:22.668Z,102142.78
2023-03-02T10:35:50.513Z,102139.44
2023-03-02T10:38:20.136Z,102138.78
2023-03-02T10:40:47.558Z,102135.22
2023-03-02T10:43:16.418Z,102140.78
2023-03-02T10:45:43.523Z,102145.78
2023-03-02T10:48:12.288Z,102138.44
2023-03-02T10:50:39.283Z,102140.31
2023-03-02T10:53:09.131Z,102141.63
2023-03-02T10:55:38.613Z,102139.44
2023-03-02T10:58:07.415Z,102138.03
2023-03-02T11:00:35.584Z,102140.66
2023-03-02T11:03:04.336Z,102136.97
2023-03-02T11:05:31.643Z,102140.66
2023-03-02T11:08:01.727Z,102145.50
2023-03-02T11:10:32.289Z,102144.09
2023-03-02T11:13:00.215Z,102145.44
2023-03-02T11:15:28.919Z,102140.81
2023-03-02T11:17:58.938Z,102137.94
2023-03-02T11:20:28.610Z,102140.78
2023-03-02T11:22:55.913Z,102152.94
2023-03-02T11:25:26.687Z,102145.53
2023-03-02T11:27:57.719Z,102138.28
2023-03-02T11:30:27.375Z,102142.78
2023-03-02T11:32:58.977Z,102142.16
2023-03-02T11:35:28.891Z,102132.78
2023-03-02T11:37:57.795Z,102136.13
2023-03-02T11:40:30.948Z,102140.75
2023-03-02T11:43:00.014Z,102141.16
2023-03-02T11:45:30.138Z,102136.81
2023-03-02T11:48:03.320Z,102140.19
2023-03-02T11:50:32.937Z,102133.88
2023-03-02T11:53:02.308Z,102140.19
2023-03-02T11:55:35.494Z,102140.63
2023-03-02T11:58:04.043Z,102134.53
2023-03-02T12:00:34.138Z,102141.31
2023-03-02T12:03:03.336Z,102141.13
2023-03-02T12:05:31.779Z,102125.88
2023-03-02T12:07:59.790Z,102127.44
2023-03-02T12:10:31.827Z,102127.78
2023-03-02T12:13:02.923Z,102122.75
2023-03-02T12:15:37.398Z,102122.31
2023-03-02T12:18:15.746Z,102119.97
2023-03-02T12:20:43.359Z,102117.00
2023-03-02T12:23:22.058Z,102121.09
2023-03-02T12:25:51.668Z,102115.22
2023-03-02T12:28:21.917Z,102117.84
2023-03-02T12:30:56.441Z,102115.47
2023-03-02T12:33:23.391Z,102113.19
2023-03-02T12:35:51.355Z,102115.56
2023-03-02T12:38:24.132Z,102116.16
2023-03-02T12:40:52.401Z,102114.78
2023-03-02T12:43:22.338Z,102120.78
2023-03-02T12:45:52.474Z,102117.53
2023-03-02T12:48:26.404Z,102113.84
2023-03-02T12:50:57.265Z,102115.63
2023-03-02T12:53:24.194Z,102111.09
2023-03-02T12:55:51.258Z,102102.06
2023-03-02T12:58:20.457Z,102117.47
2023-03-02T13:00:50.607Z,102116.91
2023-03-02T13:03:17.684Z,102108.56
2023-03-02T13:05:46.694Z,102105.50
2023-03-02T13:08:16.894Z,102104.66
2023-03-02T13:10:47.131Z,102093.91
2023-03-02T13:13:14.491Z,102087.25
2023-03-02T13:15:44.567Z,102101.00
2023-03-02T13:18:14.671Z,102100.78
2023-03-02T13:20:41.661Z,102084.88
2023-03-02T13:23:11.229Z,102095.69
2023-03-02T13:25:39.078Z,102095.53
2023-03-02T13:28:08.090Z,102096.53
2023-03-02T13:30:37.612Z,102098.56
2023-03-02T13:33:17.033Z,102097.06
2023-03-02T13:35:46.538Z,102088.69
2023-03-02T13:38:18.889Z,102084.69
2023-03-02T13:40:48.726Z,102089.78
2023-03-02T13:43:18.744Z,102079.78
2023-03-02T13:45:48.653Z,102078.47
2023-03-02T13:48:15.916Z,102073.59
2023-03-02T13:50:51.233Z,102082.56
2023-03-02T13:53:18.209Z,102076.38
2023-03-02T13:55:45.124Z,102076.47
2023-03-02T13:58:16.247Z,102072.06
2023-03-02T14:00:43.281Z,102087.34
2023-03-02T14:03:21.512Z,102071.13
2023-03-02T14:05:48.671Z,102067.41
2023-03-02T14:08:15.607Z,102063.34
2023-03-02T14:10:42.856Z,102063.13
2023-03-02T14:13:13.579Z,102060.72
2023-03-02T14:15:42.198Z,102060.59
2023-03-02T14:18:24.216Z,102067.06
2023-03-02T14:20:51.134Z,102064.94
2023-03-02T14:23:24.001Z,102068.16
2023-03-02T14:25:52.322Z,102060.97
2023-03-02T14:28:35.623Z,102069.00
2023-03-02T14:31:04.970Z,102059.66
2023-03-02T14:33:32.176Z,102048.91
2023-03-02T14:35:59.519Z,102049.88
2023-03-02T14:38:27.710Z,102047.44
2023-03-02T14:40:54.699Z,102047.22
2023-03-02T14:43:23.629Z,102046.38
2023-03-02T14:45:50.534Z,102040.03
2023-03-02T14:48:17.713Z,102043.38
2023-03-02T14:50:46.735Z,102042.44
2023-03-02T14:53:17.487Z,102041.81
2023-03-02T14:55:45.092Z,102040.88
2023-03-02T14:58:14.923Z,102036.34
2023-03-02T15:00:42.740Z,102037.50
2023-03-02T15:03:13.562Z,102032.84
2023-03-02T15:05:46.287Z,102028.56
2023-03-02T15:08:15.978Z,102033.56
2023-03-02T15:10:43.436Z,102036.06
2023-03-02T15:13:10.833Z,102027.94
2023-03-02T15:15:46.962Z,102022.16
2023-03-02T15:18:16.780Z,102032.69
2023-03-02T15:20:43.648Z,102018.84
2023-03-02T15:23:10.995Z,102017.88
2023-03-02T15:25:38.025Z,102024.78
2023-03-02T15:28:05.243Z,102017.16
2023-03-02T15:30:33.524Z,102025.06
2023-03-02T15:33:00.491Z,102017.53
2023-03-02T15:35:28.576Z,102022.53
2023-03-02T15:37:58.520Z,102018.22
2023-03-02T15:40:28.000Z,102024.47
2023-03-02T15:42:55.545Z,102020.88
2023-03-02T15:45:22.514Z,102027.44
2023-03-02T15:47:49.540Z,102027.47
2023-03-02T15:50:16.925Z,102026.38
2023-03-02T15:52:43.795Z,102022.34
2023-03-02T15:55:10.990Z,102021.59
2023-03-02T15:57:39.407Z,102015.50
2023-03-02T16:00:06.893Z,102020.75
2023-03-02T16:02:34.333Z,102029.97
2023-03-02T16:05:04.401Z,102023.75
2023-03-02T16:07:42.754Z,102019.78
2023-03-02T16:10:15.687Z,102022.63
2023-03-02T16:12:42.641Z,102019.97
2023-03-02T16:15:09.951Z,102026.41
2023-03-02T16:17:37.473Z,102013.47
2023-03-02T16:20:04.661Z,102017.44
2023-03-02T16:22:31.606Z,102028.72
2023-03-02T16:24:58.500Z,102016.88
2023-03-02T16:27:25.664Z,102027.06
2023-03-02T16:29:52.554Z,102023.16
2023-03-02T16:32:19.676Z,102033.06
2023-03-02T16:34:46.582Z,102032.50
2023-03-02T16:37:13.672Z,102034.66
2023-03-02T16:39:47.069Z,102034.66
2023-03-02T16:42:13.957Z,102035.88
2023-03-02T16:44:41.020Z,102031.56
2023-03-02T16:47:08.415Z,102032.50
2023-03-02T16:49:36.386Z,102036.34
2023-03-02T16:52:03.484Z,102034.66
2023-03-02T16:54:30.415Z,102042.94
2023-03-02T16:56:57.294Z,102040.56
2023-03-02T16:59:24.281Z,102045.44
2023-03-02T17:01:51.492Z,102049.97
2023-03-02T17:04:22.482Z,102054.53
2023-03-02T17:07:00.553Z,102064.22
2023-03-02T17:09:28.529Z,102052.28
2023-03-02T17:11:55.869Z,102056.28
2023-03-02T17:14:32.349Z,102064.28
2023-03-02T17:17:00.145Z,102066.94
2023-03-02T17:19:29.950Z,102062.88
2023-03-02T17:21:58.842Z,102064.19
2023-03-02T17:24:34.129Z,102066.56
2023-03-02T17:27:02.427Z,102078.03
2023-03-02T17:29:30.190Z,102073.72
2023-03-02T17:31:57.870Z,102072.19
2023-03-02T17:34:28.845Z,102082.06
2023-03-02T17:36:56.232Z,102075.38
2023-03-02T17:39:23.198Z,102084.34
2023-03-02T17:41:50.101Z,102078.59
2023-03-02T17:44:17.042Z,102087.66
2023-03-02T17:47:04.162Z,102085.16
2023-03-02T17:49:32.597Z,102091.38
2023-03-02T17:52:00.534Z,102094.69
2023-03-02T17:54:38.085Z,102105.31
2023-03-02T17:57:05.211Z,102113.53
2023-03-02T17:59:32.881Z,102114.38
2023-03-02T18:02:18.682Z,102117.34
2023-03-02T18:04:46.227Z,102118.75
2023-03-02T18:07:13.850Z,102126.84
2023-03-02T18:09:41.062Z,102128.75
2023-03-02T18:12:08.769Z,102136.72
2023-03-02T18:14:37.384Z,102136.03
2023-03-02T18:17:26.419Z,102142.31
2023-03-02T18:19:56.777Z,102148.84
2023-03-02T18:22:24.024Z,102144.59
2023-03-02T18:24:52.976Z,102145.34
2023-03-02T18:27:20.521Z,102155.84
2023-03-02T18:29:47.712Z,102157.03
2023-03-02T18:32:15.946Z,102168.69
2023-03-02T18:34:42.959Z,102165.44
2023-03-02T18:37:09.980Z,102164.00
2023-03-02T18:39:38.096Z,102170.19
2023-03-02T18:42:05.473Z,102169.44
2023-03-02T18:44:32.944Z,102173.03
2023-03-02T18:47:01.348Z,102185.19
2023-03-02T18:49:28.602Z,102184.84
2023-03-02T18:51:56.944Z,102184.16
2023-03-02T18:54:30.862Z,102193.81
2023-03-02T18:56:58.038Z,102188.56
2023-03-02T18:59:25.327Z,102192.97
2023-03-02T19:01:52.664Z,102195.06
2023-03-02T19:04:19.908Z,102191.19
2023-03-02T19:06:46.950Z,102185.00
2023-03-02T19:09:13.837Z,102194.78
2023-03-02T19:11:40.957Z,102200.13
2023-03-02T19:14:17.777Z,102200.34
2023-03-02T19:16:44.864Z,102207.38
2023-03-02T19:19:11.982Z,102209.16
2023-03-02T19:21:39.149Z,102204.84
2023-03-02T19:24:06.400Z,102216.53
2023-03-02T19:26:33.274Z,102220.41
2023-03-02T19:29:00.560Z,102220.91
2023-03-02T19:31:27.916Z,102223.53
2023-03-02T19:33:54.758Z,102223.66
2023-03-02T19:36:21.756Z,102218.41
2023-03-02T19:38:48.743Z,102220.53
2023-03-02T19:41:17.516Z,102234.13
2023-03-02T19:43:46.406Z,102229.97
2023-03-02T19:46:14.373Z,102233.84
2023-03-02T19:48:42.400Z,102226.44
2023-03-02T19:51:09.528Z,102227.38
2023-03-02T19:53:37.880Z,102224.13
2023-03-02T19:56:08.376Z,102225.28
2023-03-02T19:58:36.253Z,102231.28
2023-03-02T20:01:04.356Z,102223.69
2023-03-02T20:03:31.349Z,102227.47
2023-03-02T20:05:59.182Z,102222.75
2023-03-02T20:08:26.046Z,102231.00
2023-03-02T20:10:53.359Z,102225.22
2023-03-02T20:13:20.621Z,102233.31
2023-03-02T20:15:49.010Z,102238.72
2023-03-02T20:18:21.007Z,102235.41
2023-03-02T20:20:51.613Z,102243.13
2023-03-02T20:23:20.097Z,102245.13
2023-03-02T20:25:48.517Z,102250.44
2023-03-02T20:28:16.970Z,102255.28
2023-03-02T20:30:48.817Z,102253.59
2023-03-02T20:33:17.127Z,102256.28
2023-03-02T20:35:45.273Z,102255.84
2023-03-02T20:38:17.031Z,102254.16
2023-03-02T20:40:44.529Z,102258.84
2023-03-02T20:43:11.599Z,102264.50
2023-03-02T20:45:38.969Z,102259.25
2023-03-02T20:48:06.074Z,102255.88
2023-03-02T20:50:35.252Z,102265.53
2023-03-02T20:53:02.114Z,102266.75
2023-03-02T20:55:29.589Z,102266.09
2023-03-02T20:57:56.737Z,102266.94
2023-03-02T21:00:26.506Z,102274.50
2023-03-02T21:02:53.767Z,102277.22
2023-03-02T21:05:21.100Z,102276.59
2023-03-02T21:07:47.987Z,102283.50
2023-03-02T21:10:16.433Z,102282.75
2023-03-02T21:12:43.488Z,102277.59
2023-03-02T21:15:10.782Z,102291.81
2023-03-02T21:17:37.792Z,102280.50
2023-03-02T21:20:05.839Z,102290.72
2023-03-02T21:22:33.251Z,102296.88
2023-03-02T21:25:00.402Z,102301.47
2023-03-02T21:27:27.379Z,102298.31
2023-03-02T21:29:54.262Z,102294.13
2023-03-02T21:32:21.278Z,102298.31
2023-03-02T21:34:48.709Z,102287.00
2023-03-02T21:37:15.639Z,102297.66
2023-03-02T21:39:42.465Z,102297.84
2023-03-02T21:42:09.313Z,102284.94
2023-03-02T21:44:36.179Z,102285.88
2023-03-02T21:47:03.166Z,102294.66
2023-03-02T21:49:30.169Z,102295.00
2023-03-02T21:51:57.102Z,102296.72
2023-03-02T21:54:24.033Z,102298.41
2023-03-02T21:56:50.854Z,102292.03
2023-03-02T21:59:17.786Z,102287.56
2023-03-02T22:01:44.932Z,102285.69
2023-03-02T22:04:11.846Z,102289.06
2023-03-02T22:06:38.628Z,102287.47
2023-03-02T22:09:05.610Z,102286.63
2023-03-02T22:11:35.816Z,102283.91
2023-03-02T22:14:10.633Z,102284.03
2023-03-02T22:16:38.955Z,102280.00
2023-03-02T22:19:18.294Z,102288.28
2023-03-02T22:21:47.473Z,102297.25
2023-03-02T22:24:18.445Z,102292.88
2023-03-02T22:26:46.399Z,102287.66
2023-03-02T22:29:14.688Z,102298.19
2023-03-02T22:31:46.342Z,102293.88
2023-03-02T22:34:14.833Z,102284.38
2023-03-02T22:36:41.634Z,102291.66
2023-03-02T22:39:12.514Z,102286.72
2023-03-02T22:41:39.517Z,102280.63
2023-03-02T22:44:09.937Z,102286.53
2023-03-02T22:46:36.912Z,102286.31
2023-03-02T22:49:11.265Z,102285.22
2023-03-02T22:51:38.344Z,102283.34
2023-03-02T22:54:13.129Z,102289.34
2023-03-02T22:56:43.699Z,102285.88
2023-03-02T22:59:12.454Z,102288.50
2023-03-02T23:01:41.460Z,102297.56
2023-03-02T23:04:11.196Z,102284.09
2023-03-02T23:06:46.065Z,102290.19
2023-03-02T23:09:15.173Z,102290.75
2023-03-02T23:11:43.362Z,102290.53
2023-03-02T23:14:17.816Z,102291.09
2023-03-02T23:16:47.173Z,102280.47
2023-03-02T23:19:15.172Z,102285.50
2023-03-02T23:21:46.057Z,102279.97
2023-03-02T23:24:15.096Z,102285.84
2023-03-02T23:26:43.903Z,102282.22
2023-03-02T23:29:11.581Z,102283.16
2023-03-02T23:31:38.944Z,102278.28
2023-03-02T23:34:06.319Z,102289.59
2023-03-02T23:36:33.616Z,102288.50
2023-03-02T23:39:00.456Z,102285.88
2023-03-02T23:41:27.321Z,102274.56
2023-03-02T23:44:00.130Z,102280.56
2023-03-02T23:46:27.126Z,102281.41
2023-03-02T23:48:56.241Z,102282.25
2023-03-02T23:51:23.903Z,102293.44
2023-03-02T23:53:51.109Z,102282.25
2023-03-02T23:56:18.108Z,102274.28
2023-03-02T23:58:44.998Z,102278.69
